createdAt,value
2019-04-01T00:05:02.924Z,43.34
2019-04-01T00:10:06.581Z,39.33
2019-04-01T00:15:10.242Z,40.48
2019-04-01T00:20:13.778Z,38.23
2019-04-01T00:25:17.383Z,37.08
2019-04-01T00:30:20.998Z,35.99
2019-04-01T00:35:24.617Z,35.89
2019-04-01T00:40:28.236Z,35.20
2019-04-01T00:45:33.495Z,35.76
2019-04-01T00:50:37.323Z,36.56
2019-04-01T00:55:40.945Z,36.63
2019-04-01T01:00:44.559Z,37.12
2019-04-01T01:05:48.183Z,36.53
2019-04-01T01:10:51.798Z,37.17
2019-04-01T01:15:55.421Z,37.95
2019-04-01T01:20:59.120Z,37.91
2019-04-01T01:26:02.758Z,40.64
2019-04-01T01:31:06.378Z,37.41
2019-04-01T01:36:10.007Z,38.33
2019-04-01T01:41:13.626Z,42.03
2019-04-01T01:46:17.241Z,42.17
2019-04-01T01:51:20.866Z,42.78
2019-04-01T01:56:24.474Z,37.66
2019-04-01T02:01:28.103Z,37.91
2019-04-01T02:06:31.623Z,43.06
2019-04-01T02:11:35.162Z,43.14
2019-04-01T02:16:38.748Z,41.70
2019-04-01T02:21:42.366Z,38.80
2019-04-01T02:26:45.989Z,37.40
2019-04-01T02:31:49.605Z,36.60
2019-04-01T02:36:53.142Z,36.38
2019-04-01T02:41:56.679Z,36.25
2019-04-01T02:47:00.277Z,36.23
2019-04-01T02:52:04.806Z,36.26
2019-04-01T02:57:08.425Z,36.79
2019-04-01T03:02:12.039Z,36.86
2019-04-01T03:07:15.597Z,37.11
2019-04-01T03:12:19.180Z,36.71
2019-04-01T03:17:22.800Z,38.06
2019-04-01T03:22:26.361Z,38.99
2019-04-01T03:27:29.954Z,41.14
2019-04-01T03:32:33.590Z,41.88
2019-04-01T03:37:37.166Z,40.93
2019-04-01T03:42:40.686Z,38.56
2019-04-01T03:47:44.224Z,39.92
2019-04-01T03:52:48.146Z,40.02
2019-04-01T03:57:51.763Z,41.65
2019-04-01T04:02:55.305Z,42.47
2019-04-01T04:07:58.872Z,44.73
2019-04-01T04:13:02.395Z,38.48
2019-04-01T04:18:05.996Z,38.40
2019-04-01T04:23:09.581Z,41.04
2019-04-01T04:28:13.107Z,38.99
2019-04-01T04:33:16.697Z,39.16
2019-04-01T04:38:20.244Z,39.77
2019-04-01T04:43:23.825Z,41.40
2019-04-01T04:48:27.362Z,39.39
2019-04-01T04:53:30.964Z,40.89
2019-04-01T04:58:34.560Z,42.90
2019-04-01T05:03:38.088Z,40.04
2019-04-01T05:08:41.646Z,42.79
2019-04-01T05:13:45.233Z,39.97
2019-04-01T05:18:48.760Z,38.37
2019-04-01T05:23:52.333Z,37.19
2019-04-01T05:28:55.875Z,36.33
2019-04-01T05:33:59.420Z,35.45
2019-04-01T05:39:02.998Z,34.87
2019-04-01T05:44:06.556Z,34.83
2019-04-01T05:49:10.155Z,35.04
2019-04-01T05:54:13.716Z,35.64
2019-04-01T05:59:17.284Z,35.37
2019-04-01T06:04:20.872Z,34.50
2019-04-01T06:09:24.424Z,33.52
2019-04-01T06:14:27.974Z,33.52
2019-04-01T06:19:31.507Z,33.70
2019-04-01T06:24:35.048Z,33.61
2019-04-01T06:29:38.683Z,33.22
2019-04-01T06:34:52.808Z,33.07
2019-04-01T06:39:47.547Z,32.21
2019-04-01T06:44:51.092Z,32.09
2019-04-01T06:49:54.669Z,33.18
2019-04-01T06:54:58.201Z,33.31
2019-04-01T07:00:01.743Z,30.76
2019-04-01T07:05:06.185Z,32.25
2019-04-01T07:10:09.743Z,32.36
2019-04-01T07:15:13.284Z,32.77
2019-04-01T07:20:16.857Z,32.47
2019-04-01T07:25:20.421Z,32.50
2019-04-01T07:30:23.954Z,30.72
2019-04-01T07:35:27.556Z,31.22
2019-04-01T07:40:31.194Z,31.01
2019-04-01T07:45:34.934Z,32.23
2019-04-01T07:50:38.492Z,31.98
2019-04-01T07:55:42.016Z,31.71
2019-04-01T08:00:45.569Z,32.33
2019-04-01T08:05:49.118Z,32.39
2019-04-01T08:10:52.654Z,32.15
2019-04-01T08:15:56.174Z,32.13
2019-04-01T08:20:59.767Z,31.99
2019-04-01T08:26:03.327Z,29.93
2019-04-01T08:31:07.863Z,32.43
2019-04-01T08:36:11.450Z,30.04
2019-04-01T08:41:14.967Z,32.54
2019-04-01T08:46:18.530Z,32.99
2019-04-01T08:51:22.129Z,32.06
2019-04-01T08:56:25.645Z,30.87
2019-04-01T09:01:35.458Z,31.98
2019-04-01T09:06:34.868Z,31.55
2019-04-01T09:11:38.838Z,31.94
2019-04-01T09:16:42.546Z,31.91
2019-04-01T09:21:46.105Z,31.81
2019-04-01T09:26:49.675Z,32.67
2019-04-01T09:31:53.244Z,32.84
2019-04-01T09:36:56.797Z,32.60
2019-04-01T09:42:00.341Z,32.65
2019-04-01T09:47:04.952Z,32.88
2019-04-01T09:52:08.513Z,32.36
2019-04-01T09:57:17.866Z,32.70
2019-04-01T10:02:31.075Z,32.45
2019-04-01T10:07:29.159Z,32.21
2019-04-01T10:12:32.779Z,32.08
2019-04-01T10:17:36.315Z,31.82
2019-04-01T10:22:39.878Z,31.97
2019-04-01T10:27:43.599Z,32.54
2019-04-01T10:32:47.125Z,30.90
2019-04-01T10:37:50.709Z,32.07
2019-04-01T10:42:54.255Z,32.45
2019-04-01T10:47:57.986Z,32.72
2019-04-01T10:53:01.678Z,32.91
2019-04-01T10:58:05.327Z,32.34
2019-04-01T11:03:08.963Z,32.18
2019-04-01T12:32:12.307Z,31.20
2019-04-01T12:37:15.905Z,29.32
2019-04-01T12:42:19.749Z,34.16
2019-04-01T12:47:23.789Z,38.44
2019-04-01T12:52:27.336Z,33.80
2019-04-01T12:57:30.900Z,29.65
2019-04-01T13:02:34.555Z,32.78
2019-04-01T13:07:38.092Z,33.33
2019-04-01T13:12:41.717Z,32.49
2019-04-01T13:17:45.597Z,31.44
2019-04-01T13:22:50.340Z,32.63
2019-04-01T13:27:53.920Z,34.54
2019-04-01T13:32:57.505Z,35.49
2019-04-01T13:38:01.107Z,34.28
2019-04-01T13:43:04.904Z,34.17
2019-04-01T13:48:08.534Z,33.84
2019-04-01T13:53:12.088Z,33.43
2019-04-01T13:58:17.572Z,32.89
2019-04-01T14:03:21.045Z,33.09
2019-04-01T14:08:24.588Z,32.98
2019-04-01T14:13:28.194Z,33.11
2019-04-01T14:18:32.008Z,34.10
2019-04-01T14:23:35.602Z,34.39
2019-04-01T14:28:39.230Z,34.63
2019-04-01T14:33:43.317Z,34.39
2019-04-01T14:38:46.982Z,34.73
2019-04-01T14:43:50.611Z,34.37
2019-04-01T14:48:54.378Z,34.21
2019-04-01T14:54:02.469Z,34.22
2019-04-01T14:59:06.171Z,31.87
2019-04-01T15:04:09.907Z,35.29
2019-04-01T15:09:13.551Z,31.19
2019-04-01T15:14:17.145Z,29.31
2019-04-01T15:19:20.756Z,29.47
2019-04-01T15:24:24.309Z,32.49
2019-04-01T15:29:29.177Z,32.29
2019-04-01T15:34:32.840Z,30.33
2019-04-01T15:39:36.406Z,30.71
2019-04-01T15:44:40.001Z,31.34
2019-04-01T15:49:43.633Z,33.12
2019-04-01T15:54:47.205Z,35.04
2019-04-01T15:59:50.830Z,34.78
2019-04-01T16:04:54.452Z,33.04
2019-04-01T16:09:58.164Z,32.83
2019-04-01T16:15:01.786Z,32.65
2019-04-01T16:20:06.735Z,32.82
2019-04-01T16:25:10.360Z,33.89
2019-04-01T16:30:14.179Z,34.51
2019-04-01T16:35:17.846Z,34.54
2019-04-01T16:40:21.621Z,34.06
2019-04-01T16:45:25.352Z,35.08
2019-04-01T16:50:29.089Z,35.03
2019-04-01T16:55:32.672Z,35.45
2019-04-01T17:00:36.240Z,36.64
2019-04-01T17:05:39.844Z,32.83
2019-04-01T17:10:43.412Z,35.86
2019-04-01T17:15:47.059Z,36.33
2019-04-01T17:20:50.709Z,32.33
2019-04-01T17:25:54.860Z,37.08
2019-04-01T17:30:58.640Z,33.28
2019-04-01T17:36:02.259Z,36.93
2019-04-01T17:41:05.943Z,34.04
2019-04-01T17:46:09.597Z,34.50
2019-04-01T17:51:13.226Z,36.41
2019-04-01T17:56:17.933Z,35.31
2019-04-01T18:01:21.786Z,33.64
2019-04-01T18:06:25.643Z,32.59
2019-04-01T18:11:29.232Z,32.07
2019-04-01T18:16:33.688Z,32.02
2019-04-01T18:21:38.288Z,32.16
2019-04-01T18:26:42.789Z,31.37
2019-04-01T18:31:46.475Z,31.44
2019-04-01T18:36:52.056Z,31.59
2019-04-01T18:41:55.393Z,31.77
2019-04-01T18:46:59.000Z,32.14
2019-04-01T18:52:02.552Z,31.98
2019-04-01T18:57:06.124Z,31.53
2019-04-01T19:02:09.725Z,34.70
2019-04-01T19:07:13.355Z,35.41
2019-04-01T19:12:17.037Z,35.09
2019-04-01T19:17:20.686Z,35.59
2019-04-01T19:22:24.309Z,32.75
2019-04-01T19:27:27.930Z,35.69
2019-04-01T19:32:32.061Z,34.52
2019-04-01T19:37:35.695Z,35.49
2019-04-01T19:42:39.874Z,36.64
2019-04-01T19:47:43.630Z,34.14
2019-04-01T19:52:47.252Z,33.03
2019-04-01T19:57:50.874Z,31.83
2019-04-01T20:02:55.333Z,31.50
2019-04-01T20:07:59.864Z,31.00
2019-04-01T20:13:03.476Z,30.91
2019-04-01T20:18:07.970Z,30.81
2019-04-01T20:23:11.940Z,31.10
2019-04-01T20:28:15.493Z,30.79
2019-04-01T20:33:20.645Z,31.23
2019-04-01T20:38:24.740Z,31.33
2019-04-01T20:43:28.353Z,30.67
2019-04-01T20:48:33.084Z,30.62
2019-04-01T20:53:36.921Z,31.19
2019-04-01T20:58:41.251Z,31.16
2019-04-01T21:03:45.704Z,33.01
2019-04-01T21:08:49.329Z,34.52
2019-04-01T21:13:52.875Z,32.99
2019-04-01T21:18:56.455Z,32.69
2019-04-01T21:24:00.078Z,38.59
2019-04-01T21:29:03.702Z,35.53
2019-04-01T21:34:07.856Z,37.02
2019-04-01T21:39:11.544Z,39.28
2019-04-01T21:44:15.168Z,32.67
2019-04-01T21:49:18.791Z,38.15
2019-04-01T21:54:22.609Z,36.84
2019-04-01T21:59:26.227Z,38.77
2019-04-01T22:04:29.851Z,38.03
2019-04-01T22:09:34.458Z,39.88
2019-04-01T22:14:38.012Z,40.31
2019-04-01T22:19:41.627Z,36.62
2019-04-01T22:24:45.249Z,39.41
2019-04-01T22:29:49.323Z,39.57
2019-04-01T22:34:52.894Z,36.75
2019-04-01T22:39:56.871Z,37.65
2019-04-01T22:45:00.485Z,35.48
2019-04-01T22:50:06.292Z,34.07
2019-04-01T22:55:09.944Z,33.00
2019-04-01T23:00:13.697Z,32.52
2019-04-01T23:05:17.383Z,31.63
2019-04-01T23:10:20.999Z,31.50
2019-04-01T23:15:24.624Z,32.26
2019-04-01T23:20:28.234Z,32.95
2019-04-01T23:25:31.858Z,33.00
2019-04-01T23:30:35.407Z,33.42
2019-04-01T23:35:39.102Z,33.94
2019-04-01T23:40:42.723Z,33.93
2019-04-01T23:45:46.338Z,33.74
2019-04-01T23:50:49.956Z,33.79
2019-04-01T23:55:53.580Z,34.63
